sensor_id;sensor_type;location;lat;lon;timestamp;temperature;humidity
24678;DHT22;12800;53.094;8.778;2023-06-04T00:01:06;14.50;64.60
24678;DHT22;12800;53.094;8.778;2023-06-04T00:03:32;14.50;64.30
24678;DHT22;12800;53.094;8.778;2023-06-04T00:05:57;14.50;64.30
24678;DHT22;12800;53.094;8.778;2023-06-04T00:08:23;14.40;64.30
24678;DHT22;12800;53.094;8.778;2023-06-04T00:10:49;14.40;64.40
24678;DHT22;12800;53.094;8.778;2023-06-04T00:13:14;14.40;64.60
24678;DHT22;12800;53.094;8.778;2023-06-04T00:15:40;14.30;64.60
24678;DHT22;12800;53.094;8.778;2023-06-04T00:18:07;14.30;64.90
24678;DHT22;12800;53.094;8.778;2023-06-04T00:20:32;14.30;64.60
24678;DHT22;12800;53.094;8.778;2023-06-04T00:22:58;14.30;64.70
24678;DHT22;12800;53.094;8.778;2023-06-04T00:25:24;14.30;64.60
24678;DHT22;12800;53.094;8.778;2023-06-04T00:27:49;14.30;64.60
24678;DHT22;12800;53.094;8.778;2023-06-04T00:30:15;14.30;64.70
24678;DHT22;12800;53.094;8.778;2023-06-04T00:32:41;14.20;64.60
24678;DHT22;12800;53.094;8.778;2023-06-04T00:35:07;14.20;64.70
24678;DHT22;12800;53.094;8.778;2023-06-04T00:37:34;14.20;64.80
24678;DHT22;12800;53.094;8.778;2023-06-04T00:40:00;14.20;64.80
24678;DHT22;12800;53.094;8.778;2023-06-04T00:42:26;14.20;64.70
24678;DHT22;12800;53.094;8.778;2023-06-04T00:44:51;14.20;64.80
24678;DHT22;12800;53.094;8.778;2023-06-04T00:47:18;14.20;64.70
24678;DHT22;12800;53.094;8.778;2023-06-04T00:49:45;14.10;64.50
24678;DHT22;12800;53.094;8.778;2023-06-04T00:52:13;14.10;64.80
24678;DHT22;12800;53.094;8.778;2023-06-04T00:54:40;14.10;65.00
24678;DHT22;12800;53.094;8.778;2023-06-04T00:57:06;14.00;64.90
24678;DHT22;12800;53.094;8.778;2023-06-04T00:59:36;14.00;64.90
24678;DHT22;12800;53.094;8.778;2023-06-04T01:02:08;14.00;65.00
24678;DHT22;12800;53.094;8.778;2023-06-04T01:07:22;14.00;65.10
24678;DHT22;12800;53.094;8.778;2023-06-04T01:09:49;14.00;65.20
24678;DHT22;12800;53.094;8.778;2023-06-04T01:12:15;13.90;65.10
24678;DHT22;12800;53.094;8.778;2023-06-04T01:14:41;13.90;66.00
24678;DHT22;12800;53.094;8.778;2023-06-04T01:20:02;13.80;65.30
24678;DHT22;12800;53.094;8.778;2023-06-04T01:22:42;13.80;65.50
24678;DHT22;12800;53.094;8.778;2023-06-04T01:25:20;13.80;65.60
24678;DHT22;12800;53.094;8.778;2023-06-04T01:27:51;13.80;65.60
24678;DHT22;12800;53.094;8.778;2023-06-04T01:30:34;13.80;65.60
24678;DHT22;12800;53.094;8.778;2023-06-04T01:33:01;13.80;66.40
24678;DHT22;12800;53.094;8.778;2023-06-04T01:35:28;13.70;65.80
24678;DHT22;12800;53.094;8.778;2023-06-04T01:37:55;13.70;65.90
24678;DHT22;12800;53.094;8.778;2023-06-04T01:40:21;13.70;65.90
24678;DHT22;12800;53.094;8.778;2023-06-04T01:42:47;13.70;65.90
24678;DHT22;12800;53.094;8.778;2023-06-04T01:45:13;13.70;66.00
24678;DHT22;12800;53.094;8.778;2023-06-04T01:47:39;13.60;66.00
24678;DHT22;12800;53.094;8.778;2023-06-04T01:50:06;13.60;66.00
24678;DHT22;12800;53.094;8.778;2023-06-04T01:52:37;13.60;66.10
24678;DHT22;12800;53.094;8.778;2023-06-04T01:55:04;13.50;66.20
24678;DHT22;12800;53.094;8.778;2023-06-04T01:57:30;13.50;66.20
24678;DHT22;12800;53.094;8.778;2023-06-04T01:59:55;13.50;66.30
24678;DHT22;12800;53.094;8.778;2023-06-04T02:02:22;13.40;66.50
24678;DHT22;12800;53.094;8.778;2023-06-04T02:04:47;13.40;66.60
24678;DHT22;12800;53.094;8.778;2023-06-04T02:07:17;13.40;66.50
24678;DHT22;12800;53.094;8.778;2023-06-04T02:09:46;13.40;66.60
24678;DHT22;12800;53.094;8.778;2023-06-04T02:12:12;13.40;66.70
24678;DHT22;12800;53.094;8.778;2023-06-04T02:14:37;13.40;66.70
24678;DHT22;12800;53.094;8.778;2023-06-04T02:17:04;13.30;66.80
24678;DHT22;12800;53.094;8.778;2023-06-04T02:19:30;13.30;67.00
24678;DHT22;12800;53.094;8.778;2023-06-04T02:22:02;13.30;66.90
24678;DHT22;12800;53.094;8.778;2023-06-04T02:24:27;13.30;67.10
24678;DHT22;12800;53.094;8.778;2023-06-04T02:26:53;13.30;67.20
24678;DHT22;12800;53.094;8.778;2023-06-04T02:29:18;13.20;67.00
24678;DHT22;12800;53.094;8.778;2023-06-04T02:31:44;13.20;67.10
24678;DHT22;12800;53.094;8.778;2023-06-04T02:34:10;13.20;67.20
24678;DHT22;12800;53.094;8.778;2023-06-04T02:36:35;13.10;67.30
24678;DHT22;12800;53.094;8.778;2023-06-04T02:39:01;13.10;67.50
24678;DHT22;12800;53.094;8.778;2023-06-04T02:41:26;13.10;67.60
24678;DHT22;12800;53.094;8.778;2023-06-04T02:43:52;13.10;67.50
24678;DHT22;12800;53.094;8.778;2023-06-04T02:46:18;13.10;67.60
24678;DHT22;12800;53.094;8.778;2023-06-04T02:48:43;13.10;67.70
24678;DHT22;12800;53.094;8.778;2023-06-04T02:51:09;13.00;67.90
24678;DHT22;12800;53.094;8.778;2023-06-04T02:53:36;13.00;67.80
24678;DHT22;12800;53.094;8.778;2023-06-04T02:56:02;13.00;68.90
24678;DHT22;12800;53.094;8.778;2023-06-04T02:58:27;13.00;68.20
24678;DHT22;12800;53.094;8.778;2023-06-04T03:00:54;12.90;68.40
24678;DHT22;12800;53.094;8.778;2023-06-04T03:03:20;12.90;68.40
24678;DHT22;12800;53.094;8.778;2023-06-04T03:05:46;12.90;68.50
24678;DHT22;12800;53.094;8.778;2023-06-04T03:08:11;12.90;68.50
24678;DHT22;12800;53.094;8.778;2023-06-04T03:10:37;12.80;68.50
24678;DHT22;12800;53.094;8.778;2023-06-04T03:13:03;12.80;68.70
24678;DHT22;12800;53.094;8.778;2023-06-04T03:15:28;12.80;68.90
24678;DHT22;12800;53.094;8.778;2023-06-04T03:17:54;12.80;69.00
24678;DHT22;12800;53.094;8.778;2023-06-04T03:20:20;12.80;69.10
24678;DHT22;12800;53.094;8.778;2023-06-04T03:22:50;12.70;69.10
24678;DHT22;12800;53.094;8.778;2023-06-04T03:25:16;12.70;69.20
24678;DHT22;12800;53.094;8.778;2023-06-04T03:27:41;12.70;69.20
24678;DHT22;12800;53.094;8.778;2023-06-04T03:30:08;12.70;69.40
24678;DHT22;12800;53.094;8.778;2023-06-04T03:32:33;12.70;69.50
24678;DHT22;12800;53.094;8.778;2023-06-04T03:35:00;12.70;70.40
24678;DHT22;12800;53.094;8.778;2023-06-04T03:37:26;12.70;69.50
24678;DHT22;12800;53.094;8.778;2023-06-04T03:39:52;12.70;69.60
24678;DHT22;12800;53.094;8.778;2023-06-04T03:42:17;12.70;69.70
24678;DHT22;12800;53.094;8.778;2023-06-04T03:44:44;12.70;69.90
24678;DHT22;12800;53.094;8.778;2023-06-04T03:47:09;12.70;70.00
24678;DHT22;12800;53.094;8.778;2023-06-04T03:49:35;12.70;70.10
24678;DHT22;12800;53.094;8.778;2023-06-04T03:52:00;12.70;70.10
24678;DHT22;12800;53.094;8.778;2023-06-04T03:54:26;12.70;70.30
24678;DHT22;12800;53.094;8.778;2023-06-04T03:56:52;12.60;70.20
24678;DHT22;12800;53.094;8.778;2023-06-04T03:59:17;12.60;70.50
24678;DHT22;12800;53.094;8.778;2023-06-04T04:01:43;12.70;70.80
24678;DHT22;12800;53.094;8.778;2023-06-04T04:04:09;12.70;70.70
24678;DHT22;12800;53.094;8.778;2023-06-04T04:06:35;12.70;70.70
24678;DHT22;12800;53.094;8.778;2023-06-04T04:09:01;12.70;70.90
24678;DHT22;12800;53.094;8.778;2023-06-04T04:11:27;12.70;71.10
24678;DHT22;12800;53.094;8.778;2023-06-04T04:13:53;12.70;71.10
24678;DHT22;12800;53.094;8.778;2023-06-04T04:16:18;12.70;71.00
24678;DHT22;12800;53.094;8.778;2023-06-04T04:18:44;12.70;71.20
24678;DHT22;12800;53.094;8.778;2023-06-04T04:21:10;12.70;71.20
24678;DHT22;12800;53.094;8.778;2023-06-04T04:23:38;12.70;71.30
24678;DHT22;12800;53.094;8.778;2023-06-04T04:26:05;12.70;71.30
24678;DHT22;12800;53.094;8.778;2023-06-04T04:28:32;12.70;71.50
24678;DHT22;12800;53.094;8.778;2023-06-04T04:30:58;12.70;71.50
24678;DHT22;12800;53.094;8.778;2023-06-04T04:33:28;12.70;71.50
24678;DHT22;12800;53.094;8.778;2023-06-04T04:36:02;12.70;71.60
24678;DHT22;12800;53.094;8.778;2023-06-04T04:38:27;12.70;71.80
24678;DHT22;12800;53.094;8.778;2023-06-04T04:40:54;12.70;71.90
24678;DHT22;12800;53.094;8.778;2023-06-04T04:43:32;12.70;72.00
24678;DHT22;12800;53.094;8.778;2023-06-04T04:45:58;12.70;72.10
24678;DHT22;12800;53.094;8.778;2023-06-04T04:48:24;12.80;72.10
24678;DHT22;12800;53.094;8.778;2023-06-04T04:50:50;12.80;72.30
24678;DHT22;12800;53.094;8.778;2023-06-04T04:53:15;12.80;72.30
24678;DHT22;12800;53.094;8.778;2023-06-04T04:55:41;12.80;72.30
24678;DHT22;12800;53.094;8.778;2023-06-04T04:58:07;12.80;72.30
24678;DHT22;12800;53.094;8.778;2023-06-04T05:00:32;12.80;72.40
24678;DHT22;12800;53.094;8.778;2023-06-04T05:02:58;12.80;72.50
24678;DHT22;12800;53.094;8.778;2023-06-04T05:05:23;12.90;72.60
24678;DHT22;12800;53.094;8.778;2023-06-04T05:07:49;12.90;72.60
24678;DHT22;12800;53.094;8.778;2023-06-04T05:10:14;12.90;72.70
24678;DHT22;12800;53.094;8.778;2023-06-04T05:12:53;13.00;72.80
24678;DHT22;12800;53.094;8.778;2023-06-04T05:15:19;13.00;72.80
24678;DHT22;12800;53.094;8.778;2023-06-04T05:17:46;13.10;72.80
24678;DHT22;12800;53.094;8.778;2023-06-04T05:20:12;13.10;72.80
24678;DHT22;12800;53.094;8.778;2023-06-04T05:22:38;13.10;72.70
24678;DHT22;12800;53.094;8.778;2023-06-04T05:25:04;13.10;72.60
24678;DHT22;12800;53.094;8.778;2023-06-04T05:27:31;13.10;72.70
24678;DHT22;12800;53.094;8.778;2023-06-04T05:29:59;13.20;72.80
24678;DHT22;12800;53.094;8.778;2023-06-04T05:32:26;13.20;72.80
24678;DHT22;12800;53.094;8.778;2023-06-04T05:34:54;13.20;72.90
24678;DHT22;12800;53.094;8.778;2023-06-04T05:37:23;13.30;72.80
24678;DHT22;12800;53.094;8.778;2023-06-04T05:39:49;13.30;72.90
24678;DHT22;12800;53.094;8.778;2023-06-04T05:42:15;13.40;72.90
24678;DHT22;12800;53.094;8.778;2023-06-04T05:44:41;13.40;73.00
24678;DHT22;12800;53.094;8.778;2023-06-04T05:47:06;13.50;73.00
24678;DHT22;12800;53.094;8.778;2023-06-04T05:49:34;13.50;72.90
24678;DHT22;12800;53.094;8.778;2023-06-04T05:52:00;13.50;72.90
24678;DHT22;12800;53.094;8.778;2023-06-04T05:54:26;13.60;72.90
24678;DHT22;12800;53.094;8.778;2023-06-04T05:56:52;13.60;72.90
24678;DHT22;12800;53.094;8.778;2023-06-04T05:59:18;13.60;72.90
24678;DHT22;12800;53.094;8.778;2023-06-04T06:01:44;13.70;72.90
24678;DHT22;12800;53.094;8.778;2023-06-04T06:04:09;13.70;72.80
24678;DHT22;12800;53.094;8.778;2023-06-04T06:06:36;13.80;72.80
24678;DHT22;12800;53.094;8.778;2023-06-04T06:09:02;13.90;72.80
24678;DHT22;12800;53.094;8.778;2023-06-04T06:11:27;13.90;72.70
24678;DHT22;12800;53.094;8.778;2023-06-04T06:13:53;14.00;72.30
24678;DHT22;12800;53.094;8.778;2023-06-04T06:16:19;14.10;72.10
24678;DHT22;12800;53.094;8.778;2023-06-04T06:18:44;14.10;71.70
24678;DHT22;12800;53.094;8.778;2023-06-04T06:21:10;14.20;71.50
24678;DHT22;12800;53.094;8.778;2023-06-04T06:23:36;14.30;71.30
24678;DHT22;12800;53.094;8.778;2023-06-04T06:26:02;14.40;70.90
24678;DHT22;12800;53.094;8.778;2023-06-04T06:28:29;14.40;70.60
24678;DHT22;12800;53.094;8.778;2023-06-04T06:30:55;14.50;70.40
24678;DHT22;12800;53.094;8.778;2023-06-04T06:33:21;14.50;70.20
24678;DHT22;12800;53.094;8.778;2023-06-04T06:35:49;14.60;71.00
24678;DHT22;12800;53.094;8.778;2023-06-04T06:38:14;14.70;70.10
24678;DHT22;12800;53.094;8.778;2023-06-04T06:40:40;14.70;69.70
24678;DHT22;12800;53.094;8.778;2023-06-04T06:43:06;14.80;69.30
24678;DHT22;12800;53.094;8.778;2023-06-04T06:45:31;14.80;69.30
24678;DHT22;12800;53.094;8.778;2023-06-04T06:47:57;14.90;69.50
24678;DHT22;12800;53.094;8.778;2023-06-04T06:50:23;14.90;69.20
24678;DHT22;12800;53.094;8.778;2023-06-04T06:52:49;15.00;69.20
24678;DHT22;12800;53.094;8.778;2023-06-04T06:55:15;15.00;69.30
24678;DHT22;12800;53.094;8.778;2023-06-04T06:57:40;15.10;69.30
24678;DHT22;12800;53.094;8.778;2023-06-04T07:00:07;15.10;69.30
24678;DHT22;12800;53.094;8.778;2023-06-04T07:02:33;15.20;69.10
24678;DHT22;12800;53.094;8.778;2023-06-04T07:04:58;15.20;69.20
24678;DHT22;12800;53.094;8.778;2023-06-04T07:07:24;15.20;68.60
24678;DHT22;12800;53.094;8.778;2023-06-04T07:09:49;15.30;68.50
24678;DHT22;12800;53.094;8.778;2023-06-04T07:12:15;15.30;68.30
24678;DHT22;12800;53.094;8.778;2023-06-04T07:14:41;15.40;68.30
24678;DHT22;12800;53.094;8.778;2023-06-04T07:17:07;15.40;68.20
24678;DHT22;12800;53.094;8.778;2023-06-04T07:19:33;15.50;68.30
24678;DHT22;12800;53.094;8.778;2023-06-04T07:21:59;15.50;68.10
24678;DHT22;12800;53.094;8.778;2023-06-04T07:24:25;15.60;68.30
24678;DHT22;12800;53.094;8.778;2023-06-04T07:26:50;15.60;69.20
24678;DHT22;12800;53.094;8.778;2023-06-04T07:29:16;15.70;67.90
24678;DHT22;12800;53.094;8.778;2023-06-04T07:31:42;15.80;67.80
24678;DHT22;12800;53.094;8.778;2023-06-04T07:34:08;15.90;66.70
24678;DHT22;12800;53.094;8.778;2023-06-04T07:36:33;16.00;66.40
24678;DHT22;12800;53.094;8.778;2023-06-04T07:38:59;16.10;66.30
24678;DHT22;12800;53.094;8.778;2023-06-04T07:41:25;16.10;66.00
24678;DHT22;12800;53.094;8.778;2023-06-04T07:43:54;16.10;66.10
24678;DHT22;12800;53.094;8.778;2023-06-04T07:46:19;16.20;66.30
24678;DHT22;12800;53.094;8.778;2023-06-04T07:48:45;16.20;65.90
24678;DHT22;12800;53.094;8.778;2023-06-04T07:51:12;16.30;65.70
24678;DHT22;12800;53.094;8.778;2023-06-04T07:53:38;16.30;65.60
24678;DHT22;12800;53.094;8.778;2023-06-04T07:56:03;16.30;65.50
24678;DHT22;12800;53.094;8.778;2023-06-04T07:58:29;16.40;65.60
24678;DHT22;12800;53.094;8.778;2023-06-04T08:00:55;16.50;65.10
24678;DHT22;12800;53.094;8.778;2023-06-04T08:03:21;16.50;63.80
24678;DHT22;12800;53.094;8.778;2023-06-04T08:05:47;16.60;63.60
24678;DHT22;12800;53.094;8.778;2023-06-04T08:08:13;16.70;63.20
24678;DHT22;12800;53.094;8.778;2023-06-04T08:10:41;16.70;62.80
24678;DHT22;12800;53.094;8.778;2023-06-04T08:13:07;16.80;62.40
24678;DHT22;12800;53.094;8.778;2023-06-04T08:15:34;16.80;62.40
24678;DHT22;12800;53.094;8.778;2023-06-04T08:17:59;16.80;61.70
24678;DHT22;12800;53.094;8.778;2023-06-04T08:20:25;16.90;61.20
24678;DHT22;12800;53.094;8.778;2023-06-04T08:22:51;17.00;60.90
24678;DHT22;12800;53.094;8.778;2023-06-04T08:25:16;17.10;61.20
24678;DHT22;12800;53.094;8.778;2023-06-04T08:27:42;17.10;61.20
24678;DHT22;12800;53.094;8.778;2023-06-04T08:30:09;17.20;60.30
24678;DHT22;12800;53.094;8.778;2023-06-04T08:32:35;17.20;59.70
24678;DHT22;12800;53.094;8.778;2023-06-04T08:35:00;17.30;59.80
24678;DHT22;12800;53.094;8.778;2023-06-04T08:37:26;17.40;60.00
24678;DHT22;12800;53.094;8.778;2023-06-04T08:39:52;17.40;59.70
24678;DHT22;12800;53.094;8.778;2023-06-04T08:42:29;17.50;59.00
24678;DHT22;12800;53.094;8.778;2023-06-04T08:44:57;17.60;57.50
24678;DHT22;12800;53.094;8.778;2023-06-04T08:47:24;17.70;56.80
24678;DHT22;12800;53.094;8.778;2023-06-04T08:49:52;17.70;56.60
24678;DHT22;12800;53.094;8.778;2023-06-04T08:52:18;17.70;56.30
24678;DHT22;12800;53.094;8.778;2023-06-04T08:54:49;17.80;56.20
24678;DHT22;12800;53.094;8.778;2023-06-04T08:57:18;17.90;56.70
24678;DHT22;12800;53.094;8.778;2023-06-04T08:59:45;17.90;55.80
24678;DHT22;12800;53.094;8.778;2023-06-04T09:02:13;17.90;55.90
24678;DHT22;12800;53.094;8.778;2023-06-04T09:04:40;18.00;55.60
24678;DHT22;12800;53.094;8.778;2023-06-04T09:07:06;18.10;55.90
24678;DHT22;12800;53.094;8.778;2023-06-04T09:09:38;18.20;56.30
24678;DHT22;12800;53.094;8.778;2023-06-04T09:12:08;18.20;56.00
24678;DHT22;12800;53.094;8.778;2023-06-04T09:14:34;18.30;55.50
24678;DHT22;12800;53.094;8.778;2023-06-04T09:17:00;18.40;55.40
24678;DHT22;12800;53.094;8.778;2023-06-04T09:19:25;18.40;54.50
24678;DHT22;12800;53.094;8.778;2023-06-04T09:21:59;18.50;54.40
24678;DHT22;12800;53.094;8.778;2023-06-04T09:24:41;18.50;54.00
24678;DHT22;12800;53.094;8.778;2023-06-04T09:27:15;18.50;53.90
24678;DHT22;12800;53.094;8.778;2023-06-04T09:29:49;18.60;53.90
24678;DHT22;12800;53.094;8.778;2023-06-04T09:32:24;18.70;53.80
24678;DHT22;12800;53.094;8.778;2023-06-04T09:34:50;18.70;53.40
24678;DHT22;12800;53.094;8.778;2023-06-04T09:37:18;18.70;53.20
24678;DHT22;12800;53.094;8.778;2023-06-04T09:39:53;18.80;52.90
24678;DHT22;12800;53.094;8.778;2023-06-04T09:42:20;18.80;52.30
24678;DHT22;12800;53.094;8.778;2023-06-04T09:44:46;18.90;51.90
24678;DHT22;12800;53.094;8.778;2023-06-04T09:47:11;18.90;51.90
24678;DHT22;12800;53.094;8.778;2023-06-04T09:49:44;19.00;51.80
24678;DHT22;12800;53.094;8.778;2023-06-04T09:52:10;19.00;51.60
24678;DHT22;12800;53.094;8.778;2023-06-04T09:54:37;19.10;52.10
24678;DHT22;12800;53.094;8.778;2023-06-04T09:57:13;19.20;51.50
24678;DHT22;12800;53.094;8.778;2023-06-04T09:59:43;19.30;51.50
24678;DHT22;12800;53.094;8.778;2023-06-04T10:02:09;19.30;50.80
24678;DHT22;12800;53.094;8.778;2023-06-04T10:04:36;19.30;50.80
24678;DHT22;12800;53.094;8.778;2023-06-04T10:07:06;19.40;50.80
24678;DHT22;12800;53.094;8.778;2023-06-04T10:09:34;19.40;50.90
24678;DHT22;12800;53.094;8.778;2023-06-04T10:12:00;19.50;51.00
24678;DHT22;12800;53.094;8.778;2023-06-04T10:14:41;19.60;51.20
24678;DHT22;12800;53.094;8.778;2023-06-04T10:17:07;19.60;51.40
24678;DHT22;12800;53.094;8.778;2023-06-04T10:19:35;19.70;51.30
24678;DHT22;12800;53.094;8.778;2023-06-04T10:22:02;19.70;51.20
24678;DHT22;12800;53.094;8.778;2023-06-04T10:24:28;19.80;50.80
24678;DHT22;12800;53.094;8.778;2023-06-04T10:26:55;19.90;50.30
24678;DHT22;12800;53.094;8.778;2023-06-04T10:29:23;19.90;50.20
24678;DHT22;12800;53.094;8.778;2023-06-04T10:31:54;20.00;49.90
24678;DHT22;12800;53.094;8.778;2023-06-04T10:34:20;20.00;49.70
24678;DHT22;12800;53.094;8.778;2023-06-04T10:36:45;20.10;49.50
24678;DHT22;12800;53.094;8.778;2023-06-04T10:39:12;20.10;49.60
24678;DHT22;12800;53.094;8.778;2023-06-04T10:41:37;20.20;49.80
24678;DHT22;12800;53.094;8.778;2023-06-04T10:44:03;20.30;49.50
24678;DHT22;12800;53.094;8.778;2023-06-04T10:46:39;20.30;49.40
24678;DHT22;12800;53.094;8.778;2023-06-04T10:49:06;20.40;49.30
24678;DHT22;12800;53.094;8.778;2023-06-04T10:51:33;20.50;49.00
24678;DHT22;12800;53.094;8.778;2023-06-04T10:54:01;20.50;48.70
24678;DHT22;12800;53.094;8.778;2023-06-04T10:56:32;20.60;48.50
24678;DHT22;12800;53.094;8.778;2023-06-04T10:58:58;20.60;48.60
24678;DHT22;12800;53.094;8.778;2023-06-04T11:03:50;20.70;48.30
24678;DHT22;12800;53.094;8.778;2023-06-04T11:06:17;20.70;48.10
24678;DHT22;12800;53.094;8.778;2023-06-04T11:08:42;20.80;47.60
24678;DHT22;12800;53.094;8.778;2023-06-04T11:11:12;20.80;47.30
24678;DHT22;12800;53.094;8.778;2023-06-04T11:13:42;20.90;47.20
24678;DHT22;12800;53.094;8.778;2023-06-04T11:16:18;21.00;46.90
24678;DHT22;12800;53.094;8.778;2023-06-04T11:18:54;21.00;46.50
24678;DHT22;12800;53.094;8.778;2023-06-04T11:21:21;21.00;46.50
24678;DHT22;12800;53.094;8.778;2023-06-04T11:23:46;21.00;46.10
24678;DHT22;12800;53.094;8.778;2023-06-04T11:26:12;21.00;46.10
24678;DHT22;12800;53.094;8.778;2023-06-04T11:28:39;21.10;45.70
24678;DHT22;12800;53.094;8.778;2023-06-04T11:31:05;21.10;45.90
24678;DHT22;12800;53.094;8.778;2023-06-04T11:33:46;21.10;45.90
24678;DHT22;12800;53.094;8.778;2023-06-04T11:36:23;21.20;45.70
24678;DHT22;12800;53.094;8.778;2023-06-04T11:39:00;21.30;45.40
24678;DHT22;12800;53.094;8.778;2023-06-04T11:41:30;21.30;45.40
24678;DHT22;12800;53.094;8.778;2023-06-04T11:43:57;21.40;45.30
24678;DHT22;12800;53.094;8.778;2023-06-04T11:46:24;21.50;45.10
24678;DHT22;12800;53.094;8.778;2023-06-04T11:48:53;21.50;45.30
24678;DHT22;12800;53.094;8.778;2023-06-04T11:51:22;21.60;45.30
24678;DHT22;12800;53.094;8.778;2023-06-04T11:53:47;21.70;45.30
24678;DHT22;12800;53.094;8.778;2023-06-04T11:56:14;21.80;45.50
24678;DHT22;12800;53.094;8.778;2023-06-04T11:58:40;21.80;45.50
24678;DHT22;12800;53.094;8.778;2023-06-04T12:01:07;21.90;45.00
24678;DHT22;12800;53.094;8.778;2023-06-04T12:03:38;21.90;44.80
24678;DHT22;12800;53.094;8.778;2023-06-04T12:08:50;22.10;44.80
24678;DHT22;12800;53.094;8.778;2023-06-04T12:11:27;22.20;45.00
24678;DHT22;12800;53.094;8.778;2023-06-04T12:13:59;22.20;44.50
24678;DHT22;12800;53.094;8.778;2023-06-04T12:16:25;22.20;44.30
24678;DHT22;12800;53.094;8.778;2023-06-04T12:18:51;22.20;43.90
24678;DHT22;12800;53.094;8.778;2023-06-04T12:21:26;22.10;44.30
24678;DHT22;12800;53.094;8.778;2023-06-04T12:24:12;22.20;44.30
24678;DHT22;12800;53.094;8.778;2023-06-04T12:26:40;22.20;44.20
24678;DHT22;12800;53.094;8.778;2023-06-04T12:29:14;22.30;44.30
24678;DHT22;12800;53.094;8.778;2023-06-04T12:31:41;22.30;44.40
24678;DHT22;12800;53.094;8.778;2023-06-04T12:34:07;22.50;44.50
24678;DHT22;12800;53.094;8.778;2023-06-04T12:36:33;22.60;44.40
24678;DHT22;12800;53.094;8.778;2023-06-04T12:39:03;22.70;43.70
24678;DHT22;12800;53.094;8.778;2023-06-04T12:41:29;22.80;43.80
24678;DHT22;12800;53.094;8.778;2023-06-04T12:43:55;22.90;43.70
24678;DHT22;12800;53.094;8.778;2023-06-04T12:46:22;22.90;43.60
24678;DHT22;12800;53.094;8.778;2023-06-04T12:48:50;23.00;43.30
24678;DHT22;12800;53.094;8.778;2023-06-04T12:51:15;23.00;43.20
24678;DHT22;12800;53.094;8.778;2023-06-04T12:53:41;23.10;43.30
24678;DHT22;12800;53.094;8.778;2023-06-04T12:56:08;23.10;43.30
24678;DHT22;12800;53.094;8.778;2023-06-04T12:58:34;23.20;43.40
24678;DHT22;12800;53.094;8.778;2023-06-04T13:01:00;23.20;45.20
24678;DHT22;12800;53.094;8.778;2023-06-04T13:03:26;23.20;46.40
24678;DHT22;12800;53.094;8.778;2023-06-04T13:05:52;23.20;46.70
24678;DHT22;12800;53.094;8.778;2023-06-04T13:08:19;23.10;46.80
24678;DHT22;12800;53.094;8.778;2023-06-04T13:10:46;23.10;46.70
24678;DHT22;12800;53.094;8.778;2023-06-04T13:13:11;23.10;46.90
24678;DHT22;12800;53.094;8.778;2023-06-04T13:15:37;23.20;47.00
24678;DHT22;12800;53.094;8.778;2023-06-04T13:18:03;23.30;46.90
24678;DHT22;12800;53.094;8.778;2023-06-04T13:20:29;23.40;47.10
24678;DHT22;12800;53.094;8.778;2023-06-04T13:22:54;23.40;47.30
24678;DHT22;12800;53.094;8.778;2023-06-04T13:25:20;23.50;47.20
24678;DHT22;12800;53.094;8.778;2023-06-04T13:27:47;23.40;47.00
24678;DHT22;12800;53.094;8.778;2023-06-04T13:30:13;23.40;47.30
24678;DHT22;12800;53.094;8.778;2023-06-04T13:32:38;23.20;47.50
24678;DHT22;12800;53.094;8.778;2023-06-04T13:35:04;23.20;48.00
24678;DHT22;12800;53.094;8.778;2023-06-04T13:37:30;23.10;48.00
24678;DHT22;12800;53.094;8.778;2023-06-04T13:39:56;22.90;48.20
24678;DHT22;12800;53.094;8.778;2023-06-04T13:42:22;22.70;48.30
24678;DHT22;12800;53.094;8.778;2023-06-04T13:44:47;22.60;48.90
24678;DHT22;12800;53.094;8.778;2023-06-04T13:47:13;22.70;49.20
24678;DHT22;12800;53.094;8.778;2023-06-04T13:49:39;22.90;49.20
24678;DHT22;12800;53.094;8.778;2023-06-04T13:52:04;23.00;48.90
24678;DHT22;12800;53.094;8.778;2023-06-04T13:54:30;23.20;48.60
24678;DHT22;12800;53.094;8.778;2023-06-04T13:56:56;23.40;48.40
24678;DHT22;12800;53.094;8.778;2023-06-04T13:59:22;23.50;48.30
24678;DHT22;12800;53.094;8.778;2023-06-04T14:01:48;23.60;48.20
24678;DHT22;12800;53.094;8.778;2023-06-04T14:04:14;23.70;48.20
24678;DHT22;12800;53.094;8.778;2023-06-04T14:06:40;23.80;48.20
24678;DHT22;12800;53.094;8.778;2023-06-04T14:09:05;23.80;47.50
24678;DHT22;12800;53.094;8.778;2023-06-04T14:11:32;23.90;47.80
24678;DHT22;12800;53.094;8.778;2023-06-04T14:13:58;23.90;47.80
24678;DHT22;12800;53.094;8.778;2023-06-04T14:16:24;24.00;47.90
24678;DHT22;12800;53.094;8.778;2023-06-04T14:18:49;24.10;47.90
24678;DHT22;12800;53.094;8.778;2023-06-04T14:21:15;24.10;47.90
24678;DHT22;12800;53.094;8.778;2023-06-04T14:23:40;24.20;48.00
24678;DHT22;12800;53.094;8.778;2023-06-04T14:26:06;24.20;47.80
24678;DHT22;12800;53.094;8.778;2023-06-04T14:28:32;24.40;48.10
24678;DHT22;12800;53.094;8.778;2023-06-04T14:30:57;24.50;47.90
24678;DHT22;12800;53.094;8.778;2023-06-04T14:33:24;24.60;47.80
24678;DHT22;12800;53.094;8.778;2023-06-04T14:35:49;24.80;47.60
24678;DHT22;12800;53.094;8.778;2023-06-04T14:38:16;24.80;47.40
24678;DHT22;12800;53.094;8.778;2023-06-04T14:40:42;24.80;47.40
24678;DHT22;12800;53.094;8.778;2023-06-04T14:43:10;24.90;47.10
24678;DHT22;12800;53.094;8.778;2023-06-04T14:45:35;24.80;47.00
24678;DHT22;12800;53.094;8.778;2023-06-04T14:48:03;24.80;47.20
24678;DHT22;12800;53.094;8.778;2023-06-04T14:50:29;24.80;47.20
24678;DHT22;12800;53.094;8.778;2023-06-04T14:52:55;24.80;47.30
24678;DHT22;12800;53.094;8.778;2023-06-04T14:55:20;24.90;47.30
24678;DHT22;12800;53.094;8.778;2023-06-04T14:57:48;24.90;47.10
24678;DHT22;12800;53.094;8.778;2023-06-04T15:00:14;24.80;47.20
24678;DHT22;12800;53.094;8.778;2023-06-04T15:02:40;24.90;47.10
24678;DHT22;12800;53.094;8.778;2023-06-04T15:05:05;24.80;47.00
24678;DHT22;12800;53.094;8.778;2023-06-04T15:07:31;24.80;46.90
24678;DHT22;12800;53.094;8.778;2023-06-04T15:09:57;24.90;47.10
24678;DHT22;12800;53.094;8.778;2023-06-04T15:12:23;25.00;46.70
24678;DHT22;12800;53.094;8.778;2023-06-04T15:14:48;24.90;46.70
24678;DHT22;12800;53.094;8.778;2023-06-04T15:17:14;24.90;46.60
24678;DHT22;12800;53.094;8.778;2023-06-04T15:19:40;24.80;46.60
24678;DHT22;12800;53.094;8.778;2023-06-04T15:22:06;24.70;46.60
24678;DHT22;12800;53.094;8.778;2023-06-04T15:24:31;24.80;46.60
24678;DHT22;12800;53.094;8.778;2023-06-04T15:26:57;24.80;46.60
24678;DHT22;12800;53.094;8.778;2023-06-04T15:29:23;24.80;46.60
24678;DHT22;12800;53.094;8.778;2023-06-04T15:31:49;24.90;46.60
24678;DHT22;12800;53.094;8.778;2023-06-04T15:34:15;25.00;46.30
24678;DHT22;12800;53.094;8.778;2023-06-04T15:36:41;25.00;46.40
24678;DHT22;12800;53.094;8.778;2023-06-04T15:39:06;25.20;46.20